Time;durP1;ratioP1;P1;durP2;ratioP2;P2;SDS_P1;SDS_P2;PMS_P1;PMS_P2;Temp;Humidity;BMP_temperature;BMP_pressure;BME280_temperature;BME280_humidity;BME280_pressure;Samples;Min_cycle;Max_cycle;Signal;HPM_P1;HPM_P2
2023/04/02 00:01:37;;;;;;;2.17;1.20;;;7.40;99.90;;;;;;5093566;28;20198;-75
2023/04/02 00:04:13;;;;;;;8.53;2.17;;;7.40;99.90;;;;;;5093997;28;20662;-75
2023/04/02 00:06:43;;;;;;;1.97;1.17;;;7.40;99.90;;;;;;5093674;28;20224;-72
2023/04/02 00:09:28;;;;;;;4.17;1.93;;;7.30;99.90;;;;;;5093009;28;20244;-72
2023/04/02 00:11:56;;;;;;;4.43;1.23;;;7.30;99.90;;;;;;5093607;28;20300;-80
2023/04/02 00:14:26;;;;;;;4.67;1.40;;;7.40;99.90;;;;;;5093214;28;20208;-79
2023/04/02 00:16:56;;;;;;;4.20;1.33;;;7.50;99.90;;;;;;5093754;28;20676;-79
2023/04/02 00:19:30;;;;;;;4.83;1.50;;;7.40;99.90;;;;;;5093196;28;20225;-79
2023/04/02 00:21:58;;;;;;;3.97;1.77;;;7.40;99.90;;;;;;5093451;28;20236;-74
2023/04/02 00:24:25;;;;;;;2.73;1.83;;;7.40;99.90;;;;;;5092908;28;20241;-74
2023/04/02 00:26:55;;;;;;;6.23;1.40;;;7.40;99.90;;;;;;5093479;28;20300;-76
2023/04/02 00:29:21;;;;;;;4.03;2.13;;;7.40;99.90;;;;;;5092014;28;20241;-73
2023/04/02 00:31:51;;;;;;;4.40;0.80;;;7.40;99.90;;;;;;5093152;28;20247;-73
2023/04/02 00:34:22;;;;;;;3.83;1.50;;;7.40;99.90;;;;;;5092863;28;20240;-74
2023/04/02 00:36:50;;;;;;;3.07;1.87;;;7.50;99.90;;;;;;5093474;28;20279;-78
2023/04/02 00:39:24;;;;;;;6.30;1.20;;;7.40;99.90;;;;;;5092514;28;20723;-77
2023/04/02 00:42:03;;;;;;;5.53;1.73;;;7.30;99.90;;;;;;5093166;28;20233;-75
2023/04/02 00:44:32;;;;;;;1.93;1.13;;;7.30;99.90;;;;;;5092490;28;20204;-78
2023/04/02 00:47:08;;;;;;;3.57;1.73;;;7.30;99.90;;;;;;5093049;28;20212;-76
2023/04/02 00:49:39;;;;;;;3.03;0.90;;;7.30;99.90;;;;;;5092944;28;20270;-76
2023/04/02 00:52:09;;;;;;;2.63;1.40;;;7.30;99.90;;;;;;5093042;28;20233;-77
2023/04/02 00:54:41;;;;;;;4.63;1.23;;;7.30;99.90;;;;;;5093026;28;20241;-77
2023/04/02 00:57:17;;;;;;;2.27;0.97;;;7.40;99.90;;;;;;5092678;28;20272;-74
2023/04/02 00:59:54;;;;;;;2.70;1.90;;;7.40;99.90;;;;;;5092806;28;20205;-74
2023/04/02 01:02:26;;;;;;;1.67;0.80;;;7.40;99.90;;;;;;5092158;28;20247;-78
2023/04/02 01:04:57;;;;;;;8.37;1.17;;;7.40;99.90;;;;;;5092622;28;20206;-74
2023/04/02 01:07:45;;;;;;;4.47;1.37;;;7.40;99.90;;;;;;5091853;28;20241;-73
2023/04/02 01:10:24;;;;;;;4.33;1.77;;;7.40;99.90;;;;;;5092011;28;20696;-74
2023/04/02 01:13:02;;;;;;;2.27;1.27;;;7.50;99.90;;;;;;5092470;28;20284;-75
2023/04/02 01:15:34;;;;;;;3.80;1.33;;;7.40;99.90;;;;;;5092130;28;20667;-75
2023/04/02 01:18:12;;;;;;;4.73;1.27;;;7.40;99.90;;;;;;5092305;28;20201;-79
2023/04/02 01:21:08;;;;;;;2.70;1.30;;;7.50;99.90;;;;;;5092288;28;20205;-78
2023/04/02 01:23:45;;;;;;;3.23;1.40;;;7.50;99.90;;;;;;5092601;28;20208;-77
2023/04/02 01:26:27;;;;;;;2.90;1.27;;;7.50;99.90;;;;;;5091836;28;20232;-77
2023/04/02 01:29:04;;;;;;;3.60;1.00;;;7.60;99.90;;;;;;5092148;28;20202;-78
2023/04/02 01:31:33;;;;;;;6.43;1.27;;;7.60;99.90;;;;;;5091720;28;20244;-79
2023/04/02 01:34:00;;;;;;;2.60;1.10;;;7.60;99.90;;;;;;5092149;28;20575;-78
2023/04/02 01:36:36;;;;;;;2.33;0.90;;;7.70;99.90;;;;;;5091390;28;20275;-79
2023/04/02 01:39:16;;;;;;;2.40;1.07;;;7.70;99.90;;;;;;5092263;28;20201;-79
2023/04/02 01:41:48;;;;;;;5.20;1.63;;;7.70;99.90;;;;;;5091564;28;20233;-78
2023/04/02 01:44:23;;;;;;;3.67;1.13;;;7.70;99.90;;;;;;5091349;28;20664;-76
2023/04/02 01:46:50;;;;;;;3.07;1.30;;;7.70;99.90;;;;;;5091941;28;20266;-79
2023/04/02 01:49:20;;;;;;;5.13;1.80;;;7.70;99.90;;;;;;5091536;28;20236;-79
2023/04/02 01:51:51;;;;;;;6.40;2.10;;;7.60;99.90;;;;;;5091733;28;20206;-76
2023/04/02 01:54:20;;;;;;;5.33;1.47;;;7.60;99.90;;;;;;5091197;28;20211;-80
2023/04/02 01:56:47;;;;;;;8.63;1.70;;;7.70;99.90;;;;;;5091850;28;20261;-80
2023/04/02 01:59:18;;;;;;;7.17;1.50;;;7.70;99.90;;;;;;5091537;28;20236;-80
2023/04/02 02:01:50;;;;;;;5.47;2.47;;;7.60;99.90;;;;;;5091700;28;20197;-79
2023/04/02 02:04:18;;;;;;;1.93;1.40;;;7.50;99.90;;;;;;5090992;28;20209;-76
2023/04/02 02:06:46;;;;;;;4.40;1.33;;;7.50;99.90;;;;;;5091527;28;20236;-76
2023/04/02 02:09:17;;;;;;;3.10;1.17;;;7.50;99.90;;;;;;5091251;28;20233;-76
2023/04/02 02:11:44;;;;;;;3.80;1.47;;;7.50;99.90;;;;;;5091644;28;20357;-72
2023/04/02 02:14:17;;;;;;;2.50;1.30;;;7.40;99.90;;;;;;5091152;28;20280;-74
2023/04/02 02:16:46;;;;;;;7.80;1.30;;;7.40;99.90;;;;;;5091191;28;20237;-76
2023/04/02 02:19:22;;;;;;;7.50;1.60;;;7.40;99.90;;;;;;5090739;28;20240;-76
2023/04/02 02:21:52;;;;;;;3.70;1.43;;;7.30;99.90;;;;;;5091250;28;20205;-75
2023/04/02 02:24:21;;;;;;;5.40;2.23;;;7.30;99.90;;;;;;5091175;28;20229;-76
2023/04/02 02:26:54;;;;;;;7.10;1.60;;;7.30;99.90;;;;;;5091515;28;20233;-78
2023/04/02 02:29:26;;;;;;;5.20;1.67;;;7.20;99.90;;;;;;5090674;28;20233;-77
2023/04/02 02:31:55;;;;;;;2.37;1.20;;;7.30;99.90;;;;;;5091216;28;20244;-75
2023/04/02 02:34:31;;;;;;;7.27;1.83;;;7.20;99.90;;;;;;5090620;28;20751;-73
2023/04/02 02:37:04;;;;;;;5.77;2.23;;;7.20;99.90;;;;;;5091197;28;20283;-75
2023/04/02 02:39:37;;;;;;;2.90;0.90;;;7.30;99.90;;;;;;5090926;28;20237;-75
2023/04/02 02:42:10;;;;;;;4.77;1.63;;;7.30;99.90;;;;;;5091140;28;20201;-75
2023/04/02 02:44:43;;;;;;;3.70;1.50;;;7.30;99.90;;;;;;5091437;28;20239;-77
2023/04/02 02:47:15;;;;;;;4.07;1.87;;;7.30;99.90;;;;;;5090802;28;20233;-75
2023/04/02 02:49:45;;;;;;;9.00;1.67;;;7.30;99.90;;;;;;5090849;28;20251;-76
2023/04/02 02:52:17;;;;;;;3.33;1.40;;;7.30;99.90;;;;;;5091050;28;20248;-73
2023/04/02 02:54:49;;;;;;;3.40;1.23;;;7.30;99.90;;;;;;5095018;28;20237;-78
2023/04/02 02:57:22;;;;;;;3.90;1.70;;;7.30;99.90;;;;;;5094580;28;20249;-77
2023/04/02 02:59:51;;;;;;;8.57;1.53;;;7.20;99.90;;;;;;5094983;28;20241;-77
2023/04/02 03:02:19;;;;;;;8.53;2.47;;;7.20;99.90;;;;;;5094640;28;20285;-74
2023/04/02 03:04:48;;;;;;;6.67;2.00;;;7.40;99.90;;;;;;5094886;28;20206;-77
2023/04/02 03:07:18;;;;;;;1.70;1.03;;;7.50;99.90;;;;;;5094614;28;20206;-74
2023/04/02 03:09:52;;;;;;;3.60;2.07;;;7.60;99.90;;;;;;5095088;28;20244;-75
2023/04/02 03:12:38;;;;;;;5.73;1.60;;;7.70;99.90;;;;;;5094472;28;20676;-76
2023/04/02 03:15:16;;;;;;;7.50;2.07;;;7.70;99.90;;;;;;5095136;28;20239;-74
2023/04/02 03:17:50;;;;;;;4.63;1.60;;;7.80;99.90;;;;;;5094233;28;20657;-74
2023/04/02 03:20:24;;;;;;;6.47;1.70;;;7.80;99.90;;;;;;5094204;28;20673;-74
2023/04/02 03:22:56;;;;;;;5.53;1.30;;;7.90;99.90;;;;;;5094680;28;20206;-73
2023/04/02 03:25:31;;;;;;;3.03;1.70;;;7.90;99.90;;;;;;5094075;28;20244;-74
2023/04/02 03:28:02;;;;;;;10.90;1.73;;;7.80;99.90;;;;;;5094641;28;20700;-78
2023/04/02 03:30:36;;;;;;;3.03;1.80;;;7.70;99.90;;;;;;5094257;28;20205;-78
2023/04/02 03:33:09;;;;;;;4.13;2.33;;;7.70;99.90;;;;;;5094226;28;20244;-77
2023/04/02 03:35:40;;;;;;;7.63;2.07;;;7.80;99.90;;;;;;5094829;28;20304;-75
2023/04/02 03:38:14;;;;;;;4.43;2.00;;;7.60;99.90;;;;;;5094835;28;20326;-77
2023/04/02 03:40:45;;;;;;;3.37;2.17;;;7.70;99.90;;;;;;5094276;28;20213;-76
2023/04/02 03:43:20;;;;;;;2.57;1.63;;;7.70;99.90;;;;;;5093948;28;20205;-76
2023/04/02 03:45:51;;;;;;;8.27;2.33;;;7.80;99.90;;;;;;5094226;28;20205;-78
2023/04/02 03:48:26;;;;;;;4.20;2.20;;;7.90;99.90;;;;;;5093712;28;20739;-76
2023/04/02 03:50:58;;;;;;;8.10;2.13;;;8.00;99.90;;;;;;5094069;28;20201;-73
2023/04/02 03:53:28;;;;;;;6.10;1.80;;;7.80;99.90;;;;;;5093679;28;20290;-75
2023/04/02 03:55:56;;;;;;;3.77;1.40;;;7.70;99.90;;;;;;5093701;28;20292;-79
2023/04/02 03:58:28;;;;;;;9.60;2.13;;;7.70;99.90;;;;;;5093378;28;20268;-79
2023/04/02 04:01:03;;;;;;;3.53;1.90;;;7.60;99.90;;;;;;5093735;28;20240;-79
2023/04/02 04:03:37;;;;;;;8.37;3.50;;;7.60;99.90;;;;;;5093257;28;20274;-79
2023/04/02 04:06:07;;;;;;;3.57;1.67;;;7.60;99.90;;;;;;5094058;28;20237;-79
2023/04/02 04:08:41;;;;;;;5.40;2.27;;;7.60;99.90;;;;;;5093798;28;20281;-78
2023/04/02 04:11:13;;;;;;;4.90;2.27;;;7.70;99.90;;;;;;5094659;28;20266;-81
2023/04/02 04:13:45;;;;;;;10.03;2.20;;;7.70;99.90;;;;;;5097209;28;20201;-81
2023/04/02 04:16:16;;;;;;;7.37;2.03;;;7.70;99.90;;;;;;5093217;28;20251;-80
2023/04/02 04:18:50;;;;;;;7.60;1.93;;;7.80;99.90;;;;;;5094106;28;20237;-79
2023/04/02 04:21:28;;;;;;;6.80;2.13;;;7.80;99.90;;;;;;5093137;28;20233;-80
2023/04/02 04:23:57;;;;;;;5.73;3.07;;;7.80;99.90;;;;;;5093450;28;20212;-80
2023/04/02 04:26:33;;;;;;;8.47;2.87;;;7.80;99.90;;;;;;5092932;28;20240;-80
2023/04/02 04:29:11;;;;;;;8.43;2.33;;;7.80;99.90;;;;;;5093044;28;20743;-81
2023/04/02 04:31:45;;;;;;;6.43;2.93;;;7.90;99.90;;;;;;5093501;28;20574;-79
2023/04/02 04:34:16;;;;;;;5.00;1.57;;;7.90;99.90;;;;;;5093080;28;20205;-81
2023/04/02 04:36:46;;;;;;;10.17;2.10;;;8.00;99.90;;;;;;5092987;28;20771;-77
2023/04/02 04:39:20;;;;;;;4.33;2.47;;;8.10;99.90;;;;;;5092924;28;20208;-78
2023/04/02 04:41:49;;;;;;;9.77;3.00;;;8.10;99.90;;;;;;5093900;28;20202;-83
2023/04/02 04:44:21;;;;;;;9.80;3.23;;;8.10;99.90;;;;;;5098489;28;20232;-82
2023/04/02 04:46:55;;;;;;;5.57;3.63;;;8.10;99.90;;;;;;5093719;28;20237;-83
2023/04/02 04:49:27;;;;;;;4.73;2.90;;;8.10;99.90;;;;;;5093085;28;20661;-84
2023/04/02 04:51:58;;;;;;;6.07;1.77;;;8.10;99.90;;;;;;5092947;28;20237;-76
2023/04/02 04:54:27;;;;;;;8.43;3.23;;;8.10;99.90;;;;;;5092551;28;20254;-79
2023/04/02 04:56:59;;;;;;;7.03;2.63;;;8.10;99.90;;;;;;5092629;28;20316;-78
2023/04/02 04:59:31;;;;;;;7.47;4.53;;;8.10;99.90;;;;;;5099880;28;20637;-71
2023/04/02 05:02:05;;;;;;;12.33;2.77;;;8.10;99.90;;;;;;5105782;28;20208;-78
2023/04/02 05:04:37;;;;;;;14.27;3.80;;;8.10;99.90;;;;;;5112523;28;20236;-79
2023/04/02 05:07:09;;;;;;;15.63;3.90;;;8.10;99.90;;;;;;5112969;28;20208;-77
2023/04/02 05:09:40;;;;;;;8.07;2.53;;;8.10;99.90;;;;;;5113121;28;20299;-78
2023/04/02 05:12:17;;;;;;;4.37;2.93;;;8.10;99.90;;;;;;5113176;28;20224;-78
2023/04/02 05:14:49;;;;;;;8.57;3.07;;;8.10;99.90;;;;;;5112143;28;20197;-77
2023/04/02 05:17:21;;;;;;;14.43;2.90;;;8.10;99.90;;;;;;5111657;28;20760;-77
2023/04/02 05:19:55;;;;;;;14.30;2.33;;;8.00;99.90;;;;;;5112936;28;20232;-76
2023/04/02 05:22:30;;;;;;;6.87;2.83;;;8.00;99.90;;;;;;5112015;28;20197;-77
2023/04/02 05:25:10;;;;;;;9.87;4.10;;;8.10;99.90;;;;;;5112527;28;20285;-77
2023/04/02 05:27:43;;;;;;;7.57;3.40;;;8.00;99.90;;;;;;5112383;28;20197;-74
2023/04/02 05:30:33;;;;;;;8.70;2.77;;;8.00;99.90;;;;;;5112039;28;20659;-72
2023/04/02 05:33:06;;;;;;;6.00;2.47;;;8.10;99.90;;;;;;5112305;28;20193;-78
2023/04/02 05:35:36;;;;;;;7.87;3.27;;;8.00;99.90;;;;;;5112091;28;20250;-79
2023/04/02 05:38:05;;;;;;;7.40;3.27;;;8.00;99.90;;;;;;5112677;28;20632;-75
2023/04/02 05:40:38;;;;;;;11.97;3.57;;;7.90;99.90;;;;;;5111925;28;20717;-74
2023/04/02 05:43:09;;;;;;;12.80;4.50;;;7.90;99.90;;;;;;5112080;28;20204;-73
2023/04/02 05:45:40;;;;;;;5.97;2.50;;;7.90;99.90;;;;;;5112279;28;20209;-72
2023/04/02 05:48:17;;;;;;;6.87;3.40;;;7.90;99.90;;;;;;5111489;28;20204;-76
2023/04/02 05:50:47;;;;;;;8.43;3.90;;;8.00;99.90;;;;;;5109326;28;20236;-79
2023/04/02 05:53:19;;;;;;;10.47;4.43;;;8.10;99.90;;;;;;5110220;28;20278;-76
2023/04/02 05:55:54;;;;;;;7.80;2.47;;;8.20;99.90;;;;;;5103579;28;20212;-77
2023/04/02 05:58:27;;;;;;;9.93;3.20;;;8.30;99.90;;;;;;5111311;28;20326;-76
2023/04/02 06:01:22;;;;;;;9.50;3.30;;;8.30;99.90;;;;;;5111444;28;20204;-79
2023/04/02 06:03:58;;;;;;;8.80;2.73;;;8.30;99.90;;;;;;5111602;28;20200;-77
2023/04/02 06:06:45;;;;;;;10.13;3.47;;;8.30;99.90;;;;;;5111092;28;20212;-74
2023/04/02 06:09:17;;;;;;;12.27;3.60;;;8.50;99.90;;;;;;5111088;28;20787;-74
2023/04/02 06:11:47;;;;;;;6.73;2.90;;;8.50;99.90;;;;;;5111070;28;20688;-75
2023/04/02 06:14:16;;;;;;;10.60;2.30;;;8.60;99.90;;;;;;5110994;28;20189;-74
2023/04/02 06:16:44;;;;;;;6.50;2.63;;;8.70;99.90;;;;;;5111657;28;20224;-73
2023/04/02 06:19:17;;;;;;;10.17;3.30;;;8.70;99.90;;;;;;5111418;28;20277;-73
2023/04/02 06:21:45;;;;;;;9.37;2.63;;;8.80;99.90;;;;;;5111001;28;20664;-74
2023/04/02 06:24:16;;;;;;;11.03;3.83;;;8.80;99.90;;;;;;5111307;28;20212;-71
2023/04/02 06:26:47;;;;;;;7.43;3.63;;;8.90;99.90;;;;;;5110584;28;20208;-74
2023/04/02 06:29:19;;;;;;;11.17;3.83;;;8.90;99.90;;;;;;5109051;28;20289;-71
2023/04/02 06:31:51;;;;;;;6.93;2.47;;;8.90;99.90;;;;;;5107454;28;20197;-76
2023/04/02 06:34:22;;;;;;;6.80;2.93;;;9.00;99.90;;;;;;5109933;28;20261;-77
2023/04/02 06:36:51;;;;;;;8.03;2.90;;;9.10;99.90;;;;;;5110266;28;20678;-80
2023/04/02 06:39:21;;;;;;;6.70;3.37;;;9.10;99.90;;;;;;5109723;28;20232;-77
2023/04/02 06:41:56;;;;;;;12.17;3.40;;;9.20;99.90;;;;;;5109257;28;20232;-81
2023/04/02 06:44:26;;;;;;;8.57;3.33;;;9.30;99.90;;;;;;5110560;28;20236;-74
2023/04/02 06:46:57;;;;;;;10.17;4.23;;;9.30;99.90;;;;;;5111141;28;20208;-76
2023/04/02 06:49:33;;;;;;;5.47;3.03;;;9.40;99.90;;;;;;5110838;28;20710;-74
2023/04/02 06:52:03;;;;;;;14.43;3.60;;;9.60;99.90;;;;;;5111043;28;20247;-72
2023/04/02 06:54:30;;;;;;;9.50;3.33;;;10.00;99.90;;;;;;5109430;28;20247;-71
2023/04/02 06:56:57;;;;;;;9.70;4.47;;;10.10;99.90;;;;;;5109661;28;20197;-78
2023/04/02 06:59:24;;;;;;;9.63;3.50;;;9.80;99.90;;;;;;5110587;28;20240;-72
2023/04/02 07:01:54;;;;;;;9.97;3.37;;;9.70;99.90;;;;;;5111237;28;20232;-73
2023/04/02 07:04:22;;;;;;;7.87;2.63;;;9.60;99.90;;;;;;5110727;28;20235;-72
2023/04/02 07:06:50;;;;;;;5.80;2.37;;;9.60;99.90;;;;;;5110978;28;20205;-72
2023/04/02 07:09:18;;;;;;;4.07;2.23;;;9.60;99.90;;;;;;5110544;28;20552;-72
2023/04/02 07:11:45;;;;;;;12.33;2.87;;;9.70;99.90;;;;;;5111085;28;20228;-72
2023/04/02 07:14:13;;;;;;;8.07;2.83;;;9.80;99.90;;;;;;5109899;28;20584;-72
2023/04/02 07:16:42;;;;;;;13.87;3.27;;;9.80;99.90;;;;;;5110768;28;20245;-72
2023/04/02 07:19:17;;;;;;;7.67;2.60;;;10.00;99.90;;;;;;5110190;28;20328;-73
2023/04/02 07:21:44;;;;;;;9.20;4.00;;;9.90;99.90;;;;;;5110593;28;20236;-72
2023/04/02 07:24:12;;;;;;;7.67;2.57;;;10.00;99.90;;;;;;5109499;28;20259;-73
2023/04/02 07:26:39;;;;;;;4.77;2.97;;;10.00;99.90;;;;;;5110923;28;20240;-73
2023/04/02 07:29:07;;;;;;;7.10;2.67;;;10.10;99.90;;;;;;5111006;28;20213;-73
2023/04/02 07:31:34;;;;;;;13.77;3.00;;;10.00;99.90;;;;;;5110847;28;20254;-73
2023/04/02 07:34:01;;;;;;;13.27;2.93;;;10.10;99.90;;;;;;5110739;28;20233;-72
2023/04/02 07:36:29;;;;;;;5.13;2.20;;;10.10;99.90;;;;;;5110641;28;20240;-73
2023/04/02 07:38:56;;;;;;;10.80;2.77;;;10.20;99.90;;;;;;5111687;28;20239;-72
2023/04/02 07:41:25;;;;;;;6.40;3.10;;;10.20;99.90;;;;;;5113425;28;20755;-73
2023/04/02 07:43:52;;;;;;;6.50;2.90;;;10.40;99.90;;;;;;5114375;28;20220;-73
2023/04/02 07:46:19;;;;;;;8.50;2.77;;;10.40;99.90;;;;;;5113574;28;20228;-74
2023/04/02 07:48:47;;;;;;;6.60;2.40;;;10.50;99.90;;;;;;5114095;27;20704;-73
2023/04/02 07:51:18;;;;;;;7.33;2.10;;;10.60;99.90;;;;;;5109833;27;20241;-74
2023/04/02 07:53:48;;;;;;;9.90;3.07;;;10.50;99.90;;;;;;5111777;28;20236;-76
2023/04/02 07:56:17;;;;;;;6.77;3.30;;;10.40;99.90;;;;;;5113218;28;20197;-75
2023/04/02 07:58:46;;;;;;;11.23;3.13;;;10.40;99.90;;;;;;5113015;28;20224;-75
2023/04/02 08:01:19;;;;;;;10.53;3.43;;;10.40;99.90;;;;;;5113416;28;20687;-74
2023/04/02 08:03:46;;;;;;;8.40;2.27;;;10.50;99.90;;;;;;5110464;27;20201;-74
2023/04/02 08:06:13;;;;;;;8.17;2.60;;;10.50;99.90;;;;;;5112574;27;20209;-78
2023/04/02 08:08:41;;;;;;;7.93;2.40;;;10.70;99.90;;;;;;5110104;27;20243;-73
2023/04/02 08:11:08;;;;;;;7.83;1.80;;;10.70;99.90;;;;;;5113149;28;20256;-74
2023/04/02 08:13:35;;;;;;;6.57;2.37;;;10.80;99.90;;;;;;5113341;27;20207;-74
2023/04/02 08:16:04;;;;;;;6.77;3.30;;;10.90;99.90;;;;;;5113944;28;20304;-74
2023/04/02 08:18:32;;;;;;;9.87;2.60;;;10.90;99.90;;;;;;5113659;28;20286;-74
2023/04/02 08:20:59;;;;;;;7.63;2.90;;;11.10;99.90;;;;;;5114196;28;20244;-75
2023/04/02 08:23:27;;;;;;;11.57;3.93;;;11.30;99.90;;;;;;5110061;28;20292;-74
2023/04/02 08:25:55;;;;;;;5.77;2.80;;;11.30;99.90;;;;;;5112557;27;20208;-75
2023/04/02 08:28:22;;;;;;;5.83;1.97;;;11.30;99.90;;;;;;5112874;28;20337;-75
2023/04/02 08:30:50;;;;;;;9.20;3.07;;;11.40;99.90;;;;;;5099959;28;20222;-77
2023/04/02 08:33:19;;;;;;;7.43;2.22;;;11.70;99.90;;;;;;5112976;28;20583;-76
2023/04/02 08:35:46;;;;;;;6.50;2.25;;;12.00;99.90;;;;;;5112727;28;20209;-82
2023/04/02 08:38:14;;;;;;;5.78;2.45;;;12.00;99.90;;;;;;5110623;28;21500;-73
2023/04/02 08:40:43;;;;;;;8.40;3.65;;;12.50;99.90;;;;;;5113152;28;20204;-76
2023/04/02 08:43:32;;;;;;;3.78;2.17;;;12.90;99.90;;;;;;5112984;28;20228;-76
2023/04/02 08:46:09;;;;;;;6.25;2.30;;;12.40;99.90;;;;;;5110096;28;20244;-75
2023/04/02 08:48:40;;;;;;;6.93;2.03;;;12.50;99.90;;;;;;5111825;28;20265;-75
2023/04/02 08:51:16;;;;;;;7.38;2.30;;;13.00;99.90;;;;;;5111809;28;20253;-75
2023/04/02 08:53:43;;;;;;;13.48;3.63;;;12.60;99.90;;;;;;5112601;28;20236;-75
2023/04/02 08:56:17;;;;;;;6.97;2.45;;;12.20;99.90;;;;;;5112718;28;20239;-74
2023/04/02 08:58:48;;;;;;;5.60;2.20;;;11.80;99.90;;;;;;5111140;28;20236;-76
2023/04/02 09:01:25;;;;;;;9.23;3.22;;;11.70;99.90;;;;;;5112954;28;20237;-75
2023/04/02 09:03:58;;;;;;;6.50;2.25;;;11.70;99.90;;;;;;5112239;28;20211;-75
2023/04/02 09:06:26;;;;;;;5.30;2.30;;;11.60;99.90;;;;;;5112151;28;20229;-74
2023/04/02 09:08:55;;;;;;;6.15;2.28;;;11.50;99.90;;;;;;5112026;28;20208;-75
2023/04/02 09:11:25;;;;;;;8.48;2.00;;;11.80;99.90;;;;;;5111970;28;20714;-75
2023/04/02 09:13:56;;;;;;;3.45;1.75;;;11.90;99.90;;;;;;5112937;28;20223;-74
2023/04/02 09:16:37;;;;;;;2.55;1.70;;;12.40;99.90;;;;;;5112475;28;20207;-74
2023/04/02 09:19:16;;;;;;;3.45;1.58;;;12.70;99.90;;;;;;5113079;28;20271;-75
2023/04/02 09:21:46;;;;;;;6.20;3.58;;;13.10;99.90;;;;;;5112199;28;20228;-74
2023/04/02 09:24:13;;;;;;;6.75;2.35;;;12.90;99.90;;;;;;5112182;28;20197;-75
2023/04/02 09:26:40;;;;;;;10.05;2.75;;;12.80;99.90;;;;;;5112681;28;20236;-75
2023/04/02 09:29:24;;;;;;;6.80;2.28;;;12.70;99.90;;;;;;5112707;28;20200;-74
2023/04/02 09:31:59;;;;;;;2.80;2.30;;;12.50;99.90;;;;;;5112704;28;20214;-74
2023/04/02 09:34:29;;;;;;;5.72;1.75;;;12.20;99.90;;;;;;5112042;28;20251;-74
2023/04/02 09:36:57;;;;;;;1.48;1.17;;;11.90;99.90;;;;;;5112692;28;20232;-76
2023/04/02 09:39:25;;;;;;;5.07;2.05;;;11.80;99.90;;;;;;5112173;28;20228;-74
2023/04/02 09:41:53;;;;;;;2.78;1.30;;;11.70;99.90;;;;;;5112502;28;20231;-75
2023/04/02 09:44:23;;;;;;;3.70;1.63;;;11.70;99.90;;;;;;5112140;28;20204;-75
2023/04/02 09:46:53;;;;;;;4.60;2.15;;;11.50;99.90;;;;;;5112623;28;20251;-76
2023/04/02 09:49:24;;;;;;;4.15;2.20;;;11.40;99.90;;;;;;5111528;28;20621;-75
2023/04/02 09:52:16;;;;;;;4.45;1.77;;;11.30;99.90;;;;;;5112254;28;20207;-75
2023/04/02 09:54:43;;;;;;;1.15;0.90;;;11.40;99.90;;;;;;5112068;28;20240;-75
2023/04/02 09:57:22;;;;;;;4.38;1.83;;;11.80;99.90;;;;;;5111886;28;20204;-75
2023/04/02 10:00:10;;;;;;;3.00;1.30;;;12.30;99.90;;;;;;5112057;28;20228;-76
2023/04/02 10:02:36;;;;;;;1.42;1.10;;;13.60;99.90;;;;;;5112214;28;20223;-76
2023/04/02 10:05:05;;;;;;;2.45;1.55;;;14.40;99.90;;;;;;5112284;28;20246;-75
2023/04/02 10:07:37;;;;;;;4.28;1.27;;;13.90;99.90;;;;;;5111568;28;20582;-75
2023/04/02 10:10:19;;;;;;;7.05;1.27;;;14.50;99.90;;;;;;5112050;28;20244;-74
2023/04/02 10:12:59;;;;;;;3.08;2.45;;;14.80;99.90;;;;;;5112000;28;20598;-74
2023/04/02 10:15:31;;;;;;;2.97;0.80;;;13.50;99.90;;;;;;5111465;28;20271;-74
2023/04/02 10:18:06;;;;;;;1.33;0.88;;;13.10;99.90;;;;;;5111690;28;20247;-75
2023/04/02 10:20:36;;;;;;;1.85;0.73;;;13.40;99.90;;;;;;5111339;28;20638;-75
2023/04/02 10:23:04;;;;;;;5.88;0.70;;;14.40;99.90;;;;;;5111494;28;20333;-77
2023/04/02 10:25:40;;;;;;;2.08;0.95;;;15.30;99.90;;;;;;5111545;28;20205;-75
2023/04/02 10:28:16;;;;;;;1.65;1.00;;;15.10;99.90;;;;;;5111822;28;20258;-74
2023/04/02 10:30:54;;;;;;;1.02;0.82;;;14.10;99.90;;;;;;5111567;28;20209;-74
2023/04/02 10:33:27;;;;;;;1.80;0.98;;;13.50;99.90;;;;;;5111019;28;20242;-76
2023/04/02 10:36:02;;;;;;;2.35;1.00;;;13.40;99.90;;;;;;5111226;28;20681;-74
2023/04/02 10:38:41;;;;;;;1.25;1.00;;;13.30;99.90;;;;;;5110922;28;20230;-73
2023/04/02 10:41:18;;;;;;;2.22;0.95;;;13.50;99.90;;;;;;5111677;28;20698;-75
2023/04/02 10:44:22;;;;;;;2.35;1.20;;;14.10;99.90;;;;;;5111435;28;20696;-74
2023/04/02 10:46:59;;;;;;;2.33;1.05;;;14.70;99.90;;;;;;5111288;28;20228;-78
2023/04/02 10:49:33;;;;;;;1.20;0.80;;;14.50;99.90;;;;;;5111028;28;20251;-75
2023/04/02 10:52:07;;;;;;;1.17;0.90;;;14.40;99.90;;;;;;5111396;28;20221;-74
2023/04/02 10:54:43;;;;;;;1.33;1.10;;;14.60;99.90;;;;;;5111084;28;20240;-75
2023/04/02 10:57:23;;;;;;;3.67;1.30;;;14.50;99.90;;;;;;5111464;28;20200;-74
2023/04/02 10:59:55;;;;;;;1.85;0.65;;;14.50;99.90;;;;;;5109480;28;20286;-75
2023/04/02 11:02:32;;;;;;;0.68;0.60;;;14.40;99.90;;;;;;5110544;28;20292;-76
2023/04/02 11:05:05;;;;;;;1.48;0.70;;;14.70;99.90;;;;;;5110293;28;20200;-77
2023/04/02 11:07:49;;;;;;;0.82;0.65;;;14.90;99.90;;;;;;5110278;28;20216;-76
2023/04/02 11:10:19;;;;;;;5.47;1.80;;;15.00;99.90;;;;;;5109357;28;20247;-75
2023/04/02 11:12:53;;;;;;;1.55;0.90;;;15.40;99.90;;;;;;5111006;28;20576;-76
2023/04/02 11:15:21;;;;;;;1.45;1.33;;;15.30;99.90;;;;;;5114497;28;20243;-75
2023/04/02 11:17:48;;;;;;;1.73;0.77;;;15.10;99.90;;;;;;5115185;28;20204;-74
2023/04/02 11:21:04;;;;;;;2.58;0.82;;;14.70;99.90;;;;;;5114720;28;20284;-74
2023/04/02 11:23:38;;;;;;;2.50;1.10;;;14.90;99.90;;;;;;5113993;28;20204;-77
2023/04/02 11:26:31;;;;;;;1.20;0.80;;;14.90;99.90;;;;;;5115260;28;20228;-74
2023/04/02 11:29:14;;;;;;;1.15;0.88;;;14.50;99.90;;;;;;5114799;28;20204;-75
2023/04/02 11:31:43;;;;;;;2.10;1.40;;;14.00;99.90;;;;;;5114866;28;20232;-74
2023/04/02 11:34:14;;;;;;;0.82;0.82;;;14.10;99.90;;;;;;5114604;28;20240;-74
2023/04/02 11:37:01;;;;;;;3.05;1.48;;;14.40;99.90;;;;;;5114798;28;20254;-75
2023/04/02 11:39:52;;;;;;;3.38;1.05;;;14.50;99.90;;;;;;5114188;28;20275;-75
2023/04/02 11:42:26;;;;;;;2.15;1.55;;;15.00;99.90;;;;;;5114310;28;20204;-75
2023/04/02 11:44:53;;;;;;;1.52;1.30;;;14.60;99.90;;;;;;5114319;28;20398;-74
2023/04/02 11:47:22;;;;;;;4.65;1.80;;;14.20;99.90;;;;;;5114236;28;20672;-76
2023/04/02 11:50:27;;;;;;;2.67;1.30;;;13.90;99.90;;;;;;5114574;28;20250;-74
2023/04/02 11:52:56;;;;;;;2.20;1.38;;;13.70;99.90;;;;;;5114542;28;20200;-76
2023/04/02 11:55:29;;;;;;;2.25;0.98;;;13.80;99.90;;;;;;5114165;28;20257;-74
2023/04/02 11:58:10;;;;;;;2.85;0.93;;;14.10;99.90;;;;;;5114276;28;20205;-76
2023/04/02 12:01:22;;;;;;;1.05;0.77;;;14.40;99.90;;;;;;5114390;28;20655;-77
2023/04/02 12:04:34;;;;;;;4.10;0.95;;;14.40;99.90;;;;;;5011018;28;20721;-77
2023/04/02 12:07:17;;;;;;;1.27;1.17;;;14.20;99.90;;;;;;5107774;28;20217;-76
2023/04/02 12:09:47;;;;;;;3.67;1.05;;;14.70;99.90;;;;;;5113981;28;20212;-79
2023/04/02 12:12:25;;;;;;;0.60;0.60;;;15.10;99.90;;;;;;5113732;28;20228;-77
2023/04/02 12:14:55;;;;;;;0.70;0.70;;;15.10;99.90;;;;;;5113870;28;20664;-76
2023/04/02 12:17:28;;;;;;;1.45;0.50;;;14.80;99.90;;;;;;5113562;28;20702;-74
2023/04/02 12:19:58;;;;;;;0.50;0.50;;;14.70;99.90;;;;;;5113826;28;20241;-77
2023/04/02 12:22:27;;;;;;;0.73;0.50;;;14.80;99.90;;;;;;5113683;28;20253;-77
2023/04/02 12:24:58;;;;;;;0.60;0.60;;;15.10;99.90;;;;;;5112664;28;20207;-78
2023/04/02 12:27:27;;;;;;;1.17;0.80;;;14.80;99.90;;;;;;5114154;28;20220;-75
2023/04/02 12:29:58;;;;;;;1.75;0.80;;;14.90;99.90;;;;;;5113802;28;20204;-76
2023/04/02 12:32:27;;;;;;;2.05;0.80;;;15.10;99.90;;;;;;5095128;28;20201;-75
2023/04/02 12:34:56;;;;;;;1.55;1.05;;;15.60;99.90;;;;;;5113858;28;20213;-77
2023/04/02 12:37:25;;;;;;;1.20;1.10;;;16.00;99.90;;;;;;5111743;28;20266;-75
2023/04/02 12:39:55;;;;;;;3.53;1.88;;;15.40;99.90;;;;;;5113397;28;20283;-75
2023/04/02 12:42:31;;;;;;;1.55;1.38;;;14.80;99.90;;;;;;5112822;28;20204;-77
2023/04/02 12:45:00;;;;;;;2.40;1.38;;;14.90;99.90;;;;;;5112777;28;20239;-75
2023/04/02 12:47:27;;;;;;;2.08;0.70;;;14.80;99.90;;;;;;5112766;28;20245;-76
2023/04/02 12:49:56;;;;;;;0.63;0.63;;;14.80;99.90;;;;;;5112457;28;20697;-76
2023/04/02 12:52:27;;;;;;;1.30;0.77;;;14.90;99.90;;;;;;5112933;28;20228;-76
2023/04/02 12:54:56;;;;;;;1.08;0.95;;;14.70;99.90;;;;;;5113266;28;20581;-78
2023/04/02 12:57:39;;;;;;;1.75;0.95;;;15.00;99.90;;;;;;5113131;28;20201;-74
2023/04/02 13:00:34;;;;;;;1.30;0.80;;;15.00;99.90;;;;;;5113730;28;20229;-78
2023/04/02 13:03:17;;;;;;;0.77;0.70;;;15.30;99.90;;;;;;5113188;28;20556;-76
2023/04/02 13:05:48;;;;;;;1.23;0.75;;;15.70;99.90;;;;;;5111596;28;20232;-77
2023/04/02 13:08:19;;;;;;;1.02;0.95;;;15.20;99.90;;;;;;5112763;28;20228;-79
2023/04/02 13:10:52;;;;;;;1.23;0.65;;;14.90;99.90;;;;;;5113012;28;20204;-77
2023/04/02 13:13:27;;;;;;;0.73;0.63;;;14.70;99.90;;;;;;5112378;28;20307;-76
2023/04/02 13:16:24;;;;;;;1.02;0.80;;;14.80;99.90;;;;;;5112888;28;20210;-76
2023/04/02 13:18:51;;;;;;;0.98;0.70;;;14.80;99.90;;;;;;5112931;28;20197;-76
2023/04/02 13:21:27;;;;;;;0.82;0.73;;;14.50;99.90;;;;;;5112401;28;20336;-78